Time;durP1;ratioP1;P1;durP2;ratioP2;P2;SDS_P1;SDS_P2;PMS_P1;PMS_P2;Temp;Humidity;BMP_temperature;BMP_pressure;BME280_temperature;BME280_humidity;BME280_pressure;Samples;Min_cycle;Max_cycle;Signal;HPM_P1;HPM_P2
2023/08/24 00:01:41;;;;;;;13.65;12.55;;;;;;;23.27;61.36;98673.81;5031152;28;20045;-91
2023/08/24 00:04:08;;;;;;;13.38;12.35;;;;;;;23.26;60.83;98661.22;5032634;28;20048;-91
2023/08/24 00:06:34;;;;;;;12.82;11.73;;;;;;;23.31;61.02;98672.56;5049275;28;20037;-93
2023/08/24 00:09:00;;;;;;;13.57;12.48;;;;;;;23.31;60.81;98666.25;5032228;28;20037;-93
2023/08/24 00:11:27;;;;;;;13.40;12.13;;;;;;;23.22;61.62;98662.44;5032441;28;20042;-89
2023/08/24 00:13:53;;;;;;;13.68;12.50;;;;;;;23.26;61.67;98654.94;5031576;28;20038;-94
2023/08/24 00:16:20;;;;;;;12.95;11.90;;;;;;;23.17;61.49;98659.25;5030719;28;20044;-94
2023/08/24 00:18:46;;;;;;;13.25;12.15;;;;;;;23.12;62.51;98670.47;5032410;28;21242;-91
2023/08/24 00:21:16;;;;;;;13.52;12.43;;;;;;;23.06;62.76;98662.81;5032435;28;20049;-90
2023/08/24 00:23:42;;;;;;;13.63;12.32;;;;;;;23.03;63.88;98681.19;5031957;28;20037;-92
2023/08/24 00:26:08;;;;;;;14.73;13.50;;;;;;;22.91;64.23;98678.44;5034637;28;20044;-92
2023/08/24 00:28:35;;;;;;;14.48;13.25;;;;;;;22.85;65.53;98676.19;5031428;28;20050;-93
2023/08/24 00:31:01;;;;;;;14.07;12.88;;;;;;;22.73;66.10;98661.78;5034976;28;20038;-93
2023/08/24 00:33:27;;;;;;;14.25;13.05;;;;;;;22.81;64.68;98677.44;5031297;28;20042;-92
2023/08/24 00:35:52;;;;;;;13.82;12.63;;;;;;;22.85;62.73;98680.78;5031998;28;20046;-91
2023/08/24 00:38:18;;;;;;;15.30;13.95;;;;;;;22.96;64.06;98691.63;5031687;28;20091;-92
2023/08/24 00:40:44;;;;;;;14.40;13.02;;;;;;;22.82;64.18;98670.19;5031463;28;20053;-91
2023/08/24 00:43:10;;;;;;;14.60;13.30;;;;;;;22.92;64.51;98688.31;5030162;28;20076;-91
2023/08/24 00:45:38;;;;;;;13.52;12.43;;;;;;;22.83;65.26;98690.88;5028896;28;20850;-94
2023/08/24 00:48:04;;;;;;;13.85;12.55;;;;;;;22.70;64.76;98691.81;5030371;28;20037;-90
2023/08/24 00:50:31;;;;;;;14.10;12.88;;;;;;;22.62;65.62;98691.59;5030194;28;20056;-93
2023/08/24 00:52:57;;;;;;;13.50;12.50;;;;;;;22.57;64.85;98696.47;5030654;28;20038;-91
2023/08/24 00:55:23;;;;;;;13.75;12.65;;;;;;;22.43;64.22;98675.88;5030483;28;20602;-90
2023/08/24 00:57:49;;;;;;;13.93;12.73;;;;;;;22.39;63.26;98673.53;5031054;28;20056;-90
2023/08/24 01:00:16;;;;;;;13.93;12.90;;;;;;;22.34;64.24;98688.28;5035334;28;20042;-91
2023/08/24 01:02:43;;;;;;;12.52;11.57;;;;;;;22.32;64.14;98703.81;5031401;28;20438;-92
2023/08/24 01:05:09;;;;;;;13.35;12.25;;;;;;;22.11;64.03;98691.84;5029721;28;20084;-90
2023/08/24 01:07:39;;;;;;;13.25;12.15;;;;;;;22.19;64.60;98694.00;5031311;28;20080;-93
2023/08/24 01:10:07;;;;;;;13.20;12.20;;;;;;;22.13;64.46;98687.19;5030682;28;20049;-91
2023/08/24 01:12:44;;;;;;;13.90;12.80;;;;;;;22.03;64.76;98675.31;5030880;28;20045;-94
2023/08/24 01:15:16;;;;;;;14.40;13.27;;;;;;;22.03;64.47;98678.88;5027812;28;20370;-94
2023/08/24 01:17:45;;;;;;;14.90;13.70;;;;;;;22.04;64.64;98688.75;5029907;28;20062;-92
2023/08/24 01:20:15;;;;;;;15.02;13.73;;;;;;;22.10;64.32;98679.31;5030942;28;20045;-92
2023/08/24 01:22:49;;;;;;;13.02;12.00;;;;;;;22.07;65.03;98676.81;5030771;28;20044;-93
2023/08/24 01:25:21;;;;;;;14.38;13.07;;;;;;;22.03;65.92;98684.31;5031696;28;20156;-95
2023/08/24 01:27:50;;;;;;;14.65;13.43;;;;;;;21.90;65.47;98692.50;5031715;28;20045;-91
2023/08/24 01:30:17;;;;;;;13.75;12.65;;;;;;;21.85;66.61;98680.28;5029181;28;20077;-91
2023/08/24 01:32:43;;;;;;;13.57;12.27;;;;;;;21.77;67.25;98677.28;5031450;28;20040;-91
2023/08/24 01:35:09;;;;;;;14.38;13.30;;;;;;;21.67;65.64;98663.59;5030381;28;20037;-92
2023/08/24 01:37:37;;;;;;;14.15;13.00;;;;;;;21.73;65.52;98660.44;5030602;28;20048;-92
2023/08/24 01:40:09;;;;;;;13.55;12.40;;;;;;;21.82;65.01;98675.13;5030373;28;20053;-92
2023/08/24 01:42:41;;;;;;;11.80;10.90;;;;;;;21.74;64.51;98652.16;5030048;28;20050;-91
2023/08/24 01:45:10;;;;;;;14.32;13.32;;;;;;;21.89;64.52;98688.06;5027285;28;20037;-90
2023/08/24 01:47:38;;;;;;;14.50;13.27;;;;;;;21.81;64.38;98679.63;5030511;28;20061;-92
2023/08/24 01:50:05;;;;;;;14.40;13.20;;;;;;;21.88;63.99;98678.22;5030524;28;20132;-93
2023/08/24 01:52:32;;;;;;;14.32;13.32;;;;;;;21.89;64.26;98679.94;5030263;28;20076;-92
2023/08/24 01:54:58;;;;;;;13.90;12.80;;;;;;;21.79;64.67;98670.75;5045930;28;20029;-93
2023/08/24 01:57:24;;;;;;;13.38;12.48;;;;;;;21.80;64.74;98671.66;5030470;28;20044;-91
2023/08/24 01:59:50;;;;;;;13.98;12.88;;;;;;;21.76;64.50;98679.13;5047391;28;20128;-92
2023/08/24 02:02:17;;;;;;;13.45;12.35;;;;;;;21.79;65.34;98672.63;5044581;28;20137;-91
2023/08/24 02:04:43;;;;;;;13.88;12.77;;;;;;;21.66;66.98;98684.34;5030391;28;20056;-93
2023/08/24 02:07:09;;;;;;;12.98;11.98;;;;;;;21.54;67.13;98675.31;5030162;28;20041;-91
2023/08/24 02:09:35;;;;;;;14.75;13.45;;;;;;;21.68;65.08;98685.09;5030682;28;20061;-91
2023/08/24 02:12:00;;;;;;;14.05;12.95;;;;;;;21.65;66.62;98662.84;5031234;28;20065;-93
2023/08/24 02:14:26;;;;;;;13.88;12.65;;;;;;;21.78;67.44;98693.41;5030288;28;20033;-91
2023/08/24 02:16:52;;;;;;;13.65;12.52;;;;;;;21.63;67.86;98681.03;5029583;28;20049;-93
2023/08/24 02:19:19;;;;;;;13.82;12.73;;;;;;;21.68;67.94;98689.66;5031577;28;20057;-93
2023/08/24 02:21:45;;;;;;;13.85;12.75;;;;;;;21.53;67.77;98687.13;5032636;28;20056;-90
2023/08/24 02:24:11;;;;;;;15.13;13.75;;;;;;;21.51;66.80;98704.41;5031399;28;20043;-92
2023/08/24 02:26:37;;;;;;;13.05;12.00;;;;;;;21.44;66.53;98687.78;5031177;28;20045;-92
2023/08/24 02:29:03;;;;;;;13.98;12.90;;;;;;;21.32;66.19;98694.91;5030638;28;20028;-89
2023/08/24 02:31:30;;;;;;;14.15;13.05;;;;;;;21.22;66.94;98677.63;5028067;28;20045;-91
2023/08/24 02:33:56;;;;;;;14.07;12.77;;;;;;;21.19;67.26;98687.78;5030498;28;20045;-91
2023/08/24 02:36:23;;;;;;;14.52;13.30;;;;;;;21.23;66.98;98706.41;5030302;28;20065;-90
2023/08/24 02:38:49;;;;;;;14.00;13.00;;;;;;;21.07;68.06;98689.53;5031390;28;20037;-90
2023/08/24 02:41:15;;;;;;;13.73;12.73;;;;;;;20.99;68.29;98694.63;5031042;28;20052;-91
2023/08/24 02:43:40;;;;;;;14.90;13.68;;;;;;;20.85;68.19;98676.69;5030156;28;20053;-91
2023/08/24 02:46:08;;;;;;;14.23;13.05;;;;;;;20.94;68.20;98681.44;5028465;28;20038;-90
2023/08/24 02:48:34;;;;;;;14.15;13.07;;;;;;;21.01;69.38;98689.97;5031176;28;20120;-90
2023/08/24 02:51:00;;;;;;;14.85;13.65;;;;;;;21.00;68.38;98697.22;5031274;28;20746;-92
2023/08/24 02:53:28;;;;;;;14.90;13.88;;;;;;;20.86;69.08;98678.41;5030956;28;20041;-92
2023/08/24 02:55:54;;;;;;;14.15;13.15;;;;;;;20.95;70.02;98695.81;5034006;28;20037;-92
2023/08/24 02:58:19;;;;;;;13.80;12.77;;;;;;;20.83;69.15;98697.56;5034497;28;20052;-92
2023/08/24 03:00:46;;;;;;;14.32;13.25;;;;;;;20.82;70.42;98696.69;5032626;28;20045;-90
2023/08/24 03:03:13;;;;;;;14.85;13.75;;;;;;;20.80;68.94;98693.25;5034731;28;20140;-91
2023/08/24 03:05:38;;;;;;;14.70;13.70;;;;;;;20.82;69.06;98688.59;5035365;28;20060;-93
2023/08/24 03:08:10;;;;;;;14.02;12.82;;;;;;;20.64;68.02;98670.94;5038968;28;20069;-90
2023/08/24 03:10:37;;;;;;;14.07;12.98;;;;;;;20.76;68.40;98685.47;5035752;28;20064;-93
2023/08/24 03:13:03;;;;;;;13.68;12.55;;;;;;;20.75;68.86;98695.38;5049132;28;20054;-91
2023/08/24 03:15:30;;;;;;;14.15;13.15;;;;;;;20.73;68.45;98683.81;5030895;28;20037;-90
2023/08/24 03:17:56;;;;;;;14.52;13.43;;;;;;;20.65;66.89;98686.22;5032447;28;20454;-91
2023/08/24 03:20:22;;;;;;;14.10;12.93;;;;;;;20.56;67.47;98671.47;5034113;28;20042;-92
2023/08/24 03:22:48;;;;;;;13.30;12.20;;;;;;;20.64;68.89;98688.00;5033506;28;20037;-92
2023/08/24 03:25:14;;;;;;;14.02;12.93;;;;;;;20.61;69.25;98695.50;5033445;28;20499;-92
2023/08/24 03:27:41;;;;;;;13.25;12.15;;;;;;;20.47;67.36;98681.06;5033405;28;20137;-90
2023/08/24 03:30:08;;;;;;;13.65;12.55;;;;;;;20.43;68.29;98687.66;5030191;28;20042;-90
2023/08/24 03:32:33;;;;;;;14.95;13.75;;;;;;;20.41;68.58;98676.09;5033322;28;20037;-92
2023/08/24 03:34:59;;;;;;;15.13;13.82;;;;;;;20.27;69.52;98663.53;5049968;28;20047;-91
2023/08/24 03:37:25;;;;;;;14.45;13.05;;;;;;;20.36;68.10;98690.88;5032991;28;20033;-94
2023/08/24 03:39:51;;;;;;;14.18;13.20;;;;;;;20.33;68.16;98691.94;5033131;28;20504;-92
2023/08/24 03:42:17;;;;;;;13.85;12.77;;;;;;;20.29;68.28;98693.97;5033360;28;20041;-90
2023/08/24 03:44:44;;;;;;;14.07;12.98;;;;;;;20.33;68.83;98693.78;5032643;28;21838;-92
2023/08/24 03:47:10;;;;;;;13.68;12.70;;;;;;;20.30;68.75;98694.88;5029637;28;20042;-92
2023/08/24 03:49:35;;;;;;;14.93;13.82;;;;;;;20.26;69.33;98701.44;5032071;28;20100;-91
2023/08/24 03:52:02;;;;;;;15.23;14.20;;;;;;;20.24;68.63;98682.63;5032289;28;20044;-92
2023/08/24 03:54:28;;;;;;;14.15;13.05;;;;;;;20.09;68.59;98680.97;5031902;28;20033;-94
2023/08/24 03:56:54;;;;;;;15.02;13.90;;;;;;;20.20;68.00;98693.75;5033427;28;20044;-90
2023/08/24 03:59:20;;;;;;;13.88;12.90;;;;;;;20.27;69.20;98705.88;5031865;28;20403;-93
2023/08/24 04:01:47;;;;;;;14.40;13.40;;;;;;;20.15;70.31;98712.97;5030676;28;20132;-91
2023/08/24 04:04:13;;;;;;;14.48;13.30;;;;;;;20.07;70.04;98697.28;5032421;28;20111;-90
2023/08/24 04:06:39;;;;;;;15.52;14.15;;;;;;;20.13;68.49;98696.00;5048904;28;20065;-92
2023/08/24 04:09:06;;;;;;;14.35;13.25;;;;;;;20.10;69.87;98707.88;5031768;28;20060;-92
2023/08/24 04:11:32;;;;;;;14.65;13.60;;;;;;;20.09;70.00;98714.25;5032251;28;20048;-93
2023/08/24 04:13:57;;;;;;;14.07;13.07;;;;;;;20.15;70.44;98731.00;5032594;28;20041;-92
2023/08/24 04:16:23;;;;;;;14.38;13.23;;;;;;;19.97;71.99;98715.03;5029642;28;20060;-91
2023/08/24 04:18:50;;;;;;;14.73;13.65;;;;;;;19.95;72.84;98705.31;5033509;28;20095;-91
2023/08/24 04:21:16;;;;;;;14.90;13.90;;;;;;;19.98;72.53;98718.63;5032689;28;20392;-91
2023/08/24 04:23:44;;;;;;;15.15;13.95;;;;;;;19.88;73.04;98692.22;5031573;28;20115;-94
2023/08/24 04:26:10;;;;;;;15.63;14.35;;;;;;;19.91;71.98;98704.69;5031970;28;20039;-91
2023/08/24 04:28:37;;;;;;;14.95;13.85;;;;;;;19.97;71.66;98715.03;5032896;28;20051;-92
2023/08/24 04:31:03;;;;;;;16.75;15.45;;;;;;;19.87;71.70;98716.66;5029710;28;20034;-91
2023/08/24 04:33:29;;;;;;;17.33;15.55;;;;;;;19.88;71.33;98713.81;5033173;28;20042;-92
2023/08/24 04:35:58;;;;;;;15.18;14.07;;;;;;;19.78;71.01;98696.53;5031601;28;20029;-91
2023/08/24 04:38:24;;;;;;;15.90;14.75;;;;;;;19.98;70.91;98722.19;5031966;28;20054;-91
2023/08/24 04:40:51;;;;;;;15.10;14.00;;;;;;;20.08;70.42;98727.81;5031553;28;20054;-92
2023/08/24 04:43:18;;;;;;;15.95;14.65;;;;;;;20.11;70.87;98733.91;5049069;28;20047;-91
2023/08/24 04:45:46;;;;;;;15.80;14.60;;;;;;;20.08;71.62;98727.81;5030875;28;20037;-91
2023/08/24 04:48:12;;;;;;;;;;;;;;;20.13;71.89;98731.09;5033189;28;20040;-91
2023/08/24 04:50:38;;;;;;;16.17;15.07;;;;;;;20.12;71.63;98737.47;5031283;28;19921;-91
2023/08/24 04:53:05;;;;;;;14.45;13.45;;;;;;;20.05;72.92;98730.75;5031352;28;20096;-90
2023/08/24 04:55:31;;;;;;;15.55;14.35;;;;;;;19.90;74.56;98738.88;5031858;28;20037;-92
2023/08/24 04:57:57;;;;;;;15.40;14.20;;;;;;;19.95;72.87;98735.00;5032749;28;20041;-91
2023/08/24 05:00:23;;;;;;;15.20;13.98;;;;;;;19.96;72.70;98744.88;5030508;28;20470;-92
2023/08/24 05:02:49;;;;;;;15.07;14.05;;;;;;;19.94;72.75;98742.25;5032574;28;20041;-91
2023/08/24 05:05:15;;;;;;;15.88;14.77;;;;;;;19.94;72.91;98731.47;5032253;28;20045;-92
2023/08/24 05:07:40;;;;;;;17.33;16.05;;;;;;;20.08;72.90;98744.91;5034725;28;20077;-91
2023/08/24 05:10:08;;;;;;;15.75;14.65;;;;;;;20.33;74.67;98743.25;5030679;28;20044;-90
2023/08/24 05:12:35;;;;;;;15.60;14.50;;;;;;;20.25;74.43;98743.75;5032032;28;20034;-94
2023/08/24 05:15:01;;;;;;;16.80;15.55;;;;;;;20.36;73.89;98761.09;5047882;28;20117;-91
2023/08/24 05:17:28;;;;;;;17.10;15.70;;;;;;;20.32;73.87;98760.44;5030919;28;20128;-91
2023/08/24 05:19:54;;;;;;;17.10;15.80;;;;;;;20.27;75.01;98738.28;5046810;28;20052;-90
2023/08/24 05:22:20;;;;;;;16.75;15.35;;;;;;;20.40;74.62;98759.91;5030047;28;20116;-89
2023/08/24 05:24:46;;;;;;;17.40;16.00;;;;;;;20.38;74.45;98768.13;5048093;28;20033;-93
2023/08/24 05:27:15;;;;;;;17.02;15.73;;;;;;;20.34;74.55;98752.22;5031296;28;20124;-92
2023/08/24 05:29:43;;;;;;;16.80;15.60;;;;;;;20.51;74.40;98755.53;5031632;28;20399;-92
2023/08/24 05:32:09;;;;;;;15.77;14.57;;;;;;;20.55;75.51;98756.16;5046816;28;20040;-89
2023/08/24 05:34:36;;;;;;;15.63;14.50;;;;;;;20.58;74.86;98741.63;5031070;28;20399;-92
2023/08/24 05:37:02;;;;;;;16.48;15.27;;;;;;;20.87;72.42;98753.13;5031318;28;20569;-93
2023/08/24 05:39:28;;;;;;;16.95;15.52;;;;;;;21.01;71.60;98739.50;5030112;28;20045;-90
2023/08/24 05:41:53;;;;;;;15.50;14.30;;;;;;;21.28;69.82;98754.75;5031655;28;20045;-92
2023/08/24 05:44:24;;;;;;;15.73;14.52;;;;;;;21.37;69.70;98737.88;5031455;28;20037;-92
2023/08/24 05:46:50;;;;;;;16.85;15.45;;;;;;;21.71;68.43;98762.53;5031916;28;20118;-92
2023/08/24 05:49:15;;;;;;;15.45;14.25;;;;;;;21.74;66.59;98754.16;5031591;28;20052;-92
2023/08/24 05:51:41;;;;;;;16.70;15.43;;;;;;;21.83;66.61;98756.19;5032245;28;20040;-93
2023/08/24 05:54:07;;;;;;;14.75;13.68;;;;;;;22.07;65.57;98758.91;5031455;28;20110;-94
2023/08/24 05:56:33;;;;;;;15.10;13.80;;;;;;;22.13;67.13;98753.03;5048399;28;20041;-91
2023/08/24 05:58:59;;;;;;;17.63;16.42;;;;;;;22.37;68.14;98768.47;5031346;28;20720;-91
2023/08/24 06:01:27;;;;;;;14.55;13.45;;;;;;;22.52;67.94;98774.56;5047322;28;20042;-90
2023/08/24 06:03:52;;;;;;;15.50;14.30;;;;;;;22.63;63.45;98776.47;5033160;28;20083;-89
2023/08/24 06:06:18;;;;;;;14.65;13.45;;;;;;;22.57;61.51;98756.09;5030844;28;20041;-92
2023/08/24 06:08:44;;;;;;;14.48;13.30;;;;;;;22.47;61.93;98763.22;5047768;28;20037;-93
2023/08/24 06:11:10;;;;;;;15.57;14.38;;;;;;;22.60;61.47;98783.00;5031276;28;20163;-92
2023/08/24 06:13:35;;;;;;;15.25;14.05;;;;;;;22.87;62.36;98771.84;5029172;28;20045;-90
2023/08/24 06:16:01;;;;;;;15.25;14.05;;;;;;;23.21;59.98;98776.53;5029915;28;20073;-94
2023/08/24 06:18:29;;;;;;;14.77;13.65;;;;;;;23.35;59.86;98760.84;5033603;28;20044;-93
2023/08/24 06:20:55;;;;;;;15.27;13.88;;;;;;;23.49;58.09;98764.34;5034738;28;20430;-92
2023/08/24 06:23:21;;;;;;;14.70;13.40;;;;;;;23.48;58.65;98762.59;5032640;28;20037;-93
2023/08/24 06:25:49;;;;;;;14.15;13.15;;;;;;;23.86;58.14;98792.13;5031282;28;20103;-92
2023/08/24 06:28:15;;;;;;;13.57;12.48;;;;;;;24.06;56.41;98782.31;5031978;28;20077;-94
2023/08/24 06:30:42;;;;;;;14.68;13.50;;;;;;;24.12;54.94;98781.81;5032396;28;20462;-94
2023/08/24 06:33:10;;;;;;;16.67;14.27;;;;;;;24.31;54.52;98774.84;5038671;28;20041;-91
2023/08/24 06:35:38;;;;;;;14.93;13.73;;;;;;;24.53;56.29;98769.38;5038739;28;20043;-93
2023/08/24 06:38:04;;;;;;;15.45;14.13;;;;;;;24.61;55.40;98763.25;5052628;28;20045;-90
2023/08/24 06:40:30;;;;;;;15.00;13.80;;;;;;;24.80;55.38;98777.00;5037108;28;20081;-92
2023/08/24 06:42:56;;;;;;;15.60;14.45;;;;;;;24.84;54.94;98764.03;5038464;28;20046;-93
2023/08/24 06:45:22;;;;;;;16.38;15.05;;;;;;;25.00;54.78;98756.28;5054351;28;20125;-93
2023/08/24 06:47:48;;;;;;;16.70;15.45;;;;;;;25.19;54.33;98751.94;5037796;28;20067;-94
2023/08/24 06:50:15;;;;;;;15.93;14.60;;;;;;;25.34;53.58;98741.59;5038461;28;20042;-92
2023/08/24 06:52:42;;;;;;;15.05;13.57;;;;;;;25.55;53.37;98753.28;5037718;28;20060;-94
2023/08/24 06:55:10;;;;;;;17.17;15.50;;;;;;;25.64;52.35;98745.31;5037432;28;20124;-93
2023/08/24 06:57:36;;;;;;;15.15;13.75;;;;;;;25.81;52.36;98750.09;5055112;28;20045;-93
2023/08/24 07:00:07;;;;;;;15.63;14.07;;;;;;;26.07;51.69;98776.84;5036839;28;20056;-90
2023/08/24 07:02:33;;;;;;;14.95;13.75;;;;;;;26.19;51.35;98759.38;5034595;28;20507;-91
2023/08/24 07:05:00;;;;;;;13.73;12.43;;;;;;;26.32;50.73;98767.28;5035773;28;20042;-93
2023/08/24 07:07:26;;;;;;;14.02;12.00;;;;;;;26.44;50.69;98764.28;5037906;28;20044;-94
2023/08/24 07:09:53;;;;;;;14.38;12.95;;;;;;;26.53;49.98;98762.56;5035438;28;20037;-92
2023/08/24 07:12:19;;;;;;;13.85;12.55;;;;;;;26.57;50.23;98769.50;5034648;28;20033;-94
2023/08/24 07:14:45;;;;;;;13.15;12.00;;;;;;;26.69;50.55;98752.97;5034705;28;20129;-91
2023/08/24 07:17:11;;;;;;;13.15;11.98;;;;;;;26.87;49.85;98755.84;5033207;28;20041;-93
2023/08/24 07:19:37;;;;;;;15.27;12.93;;;;;;;27.05;48.66;98763.13;5034810;28;20037;-94
2023/08/24 07:22:03;;;;;;;12.73;11.63;;;;;;;27.27;48.04;98766.56;5034383;28;20041;-91
2023/08/24 07:24:29;;;;;;;13.15;11.90;;;;;;;27.35;48.85;98758.50;5051440;28;20044;-92
2023/08/24 07:26:57;;;;;;;12.25;11.18;;;;;;;27.42;47.69;98758.78;5034017;28;20033;-93
2023/08/24 07:29:23;;;;;;;13.43;12.23;;;;;;;27.55;48.27;98758.44;5050118;28;20046;-94
2023/08/24 07:31:48;;;;;;;14.23;12.82;;;;;;;27.47;48.02;98764.63;5049254;28;20034;-94
2023/08/24 07:34:15;;;;;;;13.07;11.85;;;;;;;27.44;48.04;98770.41;5034512;28;20088;-93
2023/08/24 07:36:42;;;;;;;13.43;12.05;;;;;;;27.51;48.56;98755.13;5035078;28;20455;-93
2023/08/24 07:39:08;;;;;;;13.30;12.13;;;;;;;27.70;48.55;98759.66;5032734;28;20189;-94
2023/08/24 07:41:34;;;;;;;13.77;12.23;;;;;;;27.85;48.29;98760.06;5033462;28;20133;-92
2023/08/24 07:44:01;;;;;;;13.77;12.23;;;;;;;28.12;47.39;98764.63;5033597;28;20451;-92
2023/08/24 07:46:27;;;;;;;12.27;11.15;;;;;;;27.90;46.86;98776.00;5032128;28;20049;-92
2023/08/24 07:48:53;;;;;;;12.48;11.07;;;;;;;27.77;47.67;98763.50;5031254;28;20588;-91
2023/08/24 07:51:19;;;;;;;12.05;10.95;;;;;;;27.91;47.61;98767.66;5033706;28;20048;-90
2023/08/24 07:53:44;;;;;;;15.43;11.85;;;;;;;28.16;47.07;98779.72;5033364;28;20037;-91
2023/08/24 07:56:10;;;;;;;14.43;11.65;;;;;;;28.34;47.56;98768.81;5032731;28;20124;-93
2023/08/24 07:58:36;;;;;;;14.18;11.25;;;;;;;28.62;47.48;98763.31;5033523;28;20055;-91
2023/08/24 08:01:04;;;;;;;13.65;12.18;;;;;;;28.51;47.70;98756.19;5014965;28;20091;-91
2023/08/24 08:03:30;;;;;;;11.95;10.85;;;;;;;28.33;46.79;98758.88;5032625;28;20021;-91
2023/08/24 08:05:58;;;;;;;12.77;11.50;;;;;;;28.71;46.66;98766.97;5031921;28;20369;-92
2023/08/24 08:08:24;;;;;;;11.90;10.70;;;;;;;28.96;45.50;98762.59;5049850;28;20045;-90
2023/08/24 08:10:58;;;;;;;11.77;10.68;;;;;;;29.25;45.40;98771.38;5029083;28;20038;-91
2023/08/24 08:13:24;;;;;;;11.73;10.50;;;;;;;29.24;43.68;98753.22;5047172;28;20040;-92
2023/08/24 08:15:49;;;;;;;14.18;11.27;;;;;;;29.46;43.37;98756.44;5030095;28;20037;-91
2023/08/24 08:18:16;;;;;;;12.38;11.27;;;;;;;29.47;42.76;98738.97;5032256;28;20072;-91
2023/08/24 08:20:42;;;;;;;13.05;11.65;;;;;;;29.74;42.81;98756.28;5031625;28;20866;-90
2023/08/24 08:23:08;;;;;;;12.43;11.30;;;;;;;29.93;43.14;98763.38;5032770;28;20034;-92
2023/08/24 08:25:34;;;;;;;12.07;10.98;;;;;;;30.06;42.77;98759.16;5032765;28;20060;-92
2023/08/24 08:27:59;;;;;;;12.32;11.10;;;;;;;30.14;42.43;98755.56;5032693;28;20060;-90
2023/08/24 08:30:25;;;;;;;14.73;12.00;;;;;;;30.17;41.97;98738.78;5029706;28;20073;-92
2023/08/24 08:32:52;;;;;;;12.02;10.88;;;;;;;30.35;40.62;98752.41;5032589;28;20068;-90
2023/08/24 08:35:19;;;;;;;12.95;11.82;;;;;;;30.23;40.33;98737.25;5033491;28;20046;-91
2023/08/24 08:37:46;;;;;;;12.55;11.27;;;;;;;29.98;41.30;98748.16;5032803;28;20038;-93
2023/08/24 08:40:12;;;;;;;14.73;12.10;;;;;;;30.18;41.20;98750.59;5031392;28;20056;-90
2023/08/24 08:42:38;;;;;;;13.68;11.77;;;;;;;30.25;41.82;98726.97;5032662;28;20033;-89
2023/08/24 08:45:09;;;;;;;12.40;11.20;;;;;;;30.53;41.23;98743.16;5046623;28;20049;-93
2023/08/24 08:47:34;;;;;;;12.82;11.65;;;;;;;30.71;40.39;98741.13;5031041;28;20038;-92
2023/08/24 08:50:02;;;;;;;13.30;12.20;;;;;;;30.84;41.24;98733.25;5048539;28;20042;-92
2023/08/24 08:52:31;;;;;;;13.48;12.18;;;;;;;30.89;40.47;98719.88;5032089;28;20052;-90
2023/08/24 08:54:56;;;;;;;13.68;12.45;;;;;;;31.06;39.51;98722.63;5031598;28;20076;-91
2023/08/24 08:57:24;;;;;;;12.80;11.43;;;;;;;31.31;40.37;98735.25;5031346;28;20053;-92
2023/08/24 08:59:52;;;;;;;13.88;12.68;;;;;;;31.45;39.82;98732.88;5032400;28;20037;-91
2023/08/24 09:02:19;;;;;;;12.63;11.40;;;;;;;31.59;39.29;98740.38;5030064;28;20579;-91
2023/08/24 09:04:47;;;;;;;13.18;11.98;;;;;;;31.61;39.13;98732.81;5032510;28;20057;-93
2023/08/24 09:07:13;;;;;;;14.65;13.35;;;;;;;31.65;38.56;98725.91;5032145;28;20068;-93
2023/08/24 09:09:41;;;;;;;14.70;12.57;;;;;;;31.66;38.93;98713.91;5031964;28;20042;-92
2023/08/24 09:12:08;;;;;;;14.00;12.77;;;;;;;31.82;39.08;98718.47;5032910;28;20042;-93
2023/08/24 09:14:34;;;;;;;14.40;13.20;;;;;;;32.09;37.69;98730.03;5032053;28;20052;-93
2023/08/24 09:17:00;;;;;;;14.88;13.57;;;;;;;32.08;38.44;98712.69;5032001;28;20092;-93
2023/08/24 09:19:29;;;;;;;13.88;12.65;;;;;;;32.15;38.25;98734.81;5032964;28;20069;-91
2023/08/24 09:21:57;;;;;;;14.30;13.00;;;;;;;32.22;38.21;98722.06;5031354;28;20048;-91
2023/08/24 09:24:30;;;;;;;15.13;13.70;;;;;;;32.36;38.25;98725.94;5032592;28;20047;-90
2023/08/24 09:26:57;;;;;;;15.68;13.93;;;;;;;32.44;38.12;98728.59;5032519;28;20064;-93
2023/08/24 09:29:22;;;;;;;16.40;14.88;;;;;;;32.22;38.03;98715.69;5031727;28;20061;-89
2023/08/24 09:31:50;;;;;;;16.33;14.73;;;;;;;31.88;38.19;98723.25;5030701;28;20458;-92
2023/08/24 09:34:20;;;;;;;15.40;14.18;;;;;;;32.11;38.38;98722.47;5032375;28;20108;-93
2023/08/24 09:36:46;;;;;;;16.05;14.60;;;;;;;32.31;38.45;98714.59;5030615;28;20128;-92
2023/08/24 09:39:16;;;;;;;16.08;14.45;;;;;;;32.44;37.82;98719.50;5032552;28;20060;-93
2023/08/24 09:41:43;;;;;;;16.08;14.30;;;;;;;32.71;37.42;98724.50;5032961;28;20037;-91
2023/08/24 09:44:12;;;;;;;15.73;14.20;;;;;;;32.90;37.46;98720.38;5030976;28;20495;-92
2023/08/24 09:46:38;;;;;;;16.60;14.85;;;;;;;32.98;37.58;98693.78;5028987;28;20117;-93
2023/08/24 09:49:05;;;;;;;15.50;14.05;;;;;;;33.12;37.17;98693.84;5031302;28;20033;-91
2023/08/24 09:51:32;;;;;;;15.77;14.50;;;;;;;33.26;37.30;98694.91;5046956;28;20038;-93
2023/08/24 09:53:59;;;;;;;15.82;14.43;;;;;;;33.39;36.29;98704.41;5031766;28;20104;-91
2023/08/24 09:56:27;;;;;;;16.92;15.45;;;;;;;33.43;35.96;98694.72;5034090;28;20044;-93
2023/08/24 09:58:55;;;;;;;16.77;15.48;;;;;;;33.57;36.43;98691.09;5031198;28;20038;-91
2023/08/24 10:01:23;;;;;;;17.25;15.85;;;;;;;33.58;35.56;98684.53;5028982;28;20057;-91
2023/08/24 10:03:52;;;;;;;18.13;16.58;;;;;;;33.62;35.39;98694.19;5029974;28;20057;-92
2023/08/24 10:06:20;;;;;;;18.40;16.52;;;;;;;33.21;36.13;98691.88;5031133;28;20061;-91
2023/08/24 10:08:52;;;;;;;16.30;14.90;;;;;;;33.45;36.50;98682.47;5031875;28;20056;-92
2023/08/24 10:11:24;;;;;;;17.10;15.60;;;;;;;33.56;35.70;98670.09;5031015;28;20037;-90
2023/08/24 10:13:57;;;;;;;17.15;15.68;;;;;;;33.73;35.04;98668.00;5031071;28;20080;-92
2023/08/24 10:16:25;;;;;;;18.75;16.98;;;;;;;33.87;34.09;98669.88;5028500;28;20109;-91
2023/08/24 10:18:53;;;;;;;18.58;17.08;;;;;;;34.00;34.03;98669.19;5031506;28;20499;-93
2023/08/24 10:21:19;;;;;;;18.80;17.27;;;;;;;34.12;34.56;98675.09;5030051;28;20171;-94
2023/08/24 10:23:45;;;;;;;17.75;16.15;;;;;;;34.09;34.89;98670.78;5032045;28;20550;-91
2023/08/24 10:26:13;;;;;;;19.88;18.33;;;;;;;34.05;34.09;98672.22;5028628;28;20472;-95
2023/08/24 10:28:39;;;;;;;25.33;19.58;;;;;;;34.19;34.72;98659.44;5032539;28;20068;-92
2023/08/24 10:31:06;;;;;;;19.27;17.77;;;;;;;34.25;33.92;98657.81;5028181;28;20124;-93
2023/08/24 10:33:34;;;;;;;19.33;17.92;;;;;;;34.33;34.20;98657.66;5047906;28;20037;-89
2023/08/24 10:36:00;;;;;;;20.65;18.88;;;;;;;34.31;34.01;98649.59;5029574;28;20041;-90
2023/08/24 10:38:27;;;;;;;20.73;19.23;;;;;;;34.40;32.90;98658.59;5031487;28;20048;-91
2023/08/24 10:40:53;;;;;;;21.27;19.77;;;;;;;34.50;32.75;98656.34;5031573;28;20041;-92
2023/08/24 10:43:19;;;;;;;20.40;18.75;;;;;;;34.37;33.33;98642.41;5029894;28;20495;-93
2023/08/24 10:45:57;;;;;;;20.20;18.70;;;;;;;34.22;32.64;98633.34;5028851;28;20538;-94
2023/08/24 10:48:24;;;;;;;21.25;19.42;;;;;;;34.31;33.58;98640.44;5030839;28;20041;-91
2023/08/24 10:51:19;;;;;;;20.23;18.75;;;;;;;34.33;33.27;98641.09;5030410;28;20048;-91
2023/08/24 10:53:46;;;;;;;19.60;18.00;;;;;;;34.42;33.62;98628.91;5021196;28;20136;-93
2023/08/24 10:56:12;;;;;;;21.92;20.33;;;;;;;34.36;32.66;98643.50;5029041;28;20092;-93
2023/08/24 10:58:38;;;;;;;22.00;20.58;;;;;;;33.99;33.04;98628.84;5046025;28;20053;-93
2023/08/24 11:01:04;;;;;;;19.85;18.40;;;;;;;34.05;33.33;98613.41;5029005;28;20038;-93
2023/08/24 11:03:32;;;;;;;20.13;18.73;;;;;;;34.34;32.88;98624.34;5030282;28;20042;-93
2023/08/24 11:05:58;;;;;;;21.10;19.67;;;;;;;34.50;32.17;98633.41;5030670;28;20490;-91
2023/08/24 11:08:44;;;;;;;21.27;19.80;;;;;;;34.51;31.59;98618.56;5030987;28;20044;-92
2023/08/24 11:11:18;;;;;;;21.98;20.13;;;;;;;34.73;32.22;98624.94;5028506;28;21494;-91
2023/08/24 11:14:14;;;;;;;21.73;20.15;;;;;;;34.80;31.57;98620.31;5029696;28;20044;-93
2023/08/24 11:16:42;;;;;;;20.95;19.45;;;;;;;34.75;30.42;98604.34;5027658;28;20521;-93